sensor_id;sensor_type;location;lat;lon;timestamp;temperature;humidity
11239;DHT22;5677;48.488;13.436;2022-07-04T00:01:01;22.70;60.40
11239;DHT22;5677;48.488;13.436;2022-07-04T00:03:29;22.70;60.40
11239;DHT22;5677;48.488;13.436;2022-07-04T00:05:56;22.70;60.40
11239;DHT22;5677;48.488;13.436;2022-07-04T00:08:23;22.80;60.40
11239;DHT22;5677;48.488;13.436;2022-07-04T00:10:50;22.70;60.40
11239;DHT22;5677;48.488;13.436;2022-07-04T00:13:17;22.70;60.40
11239;DHT22;5677;48.488;13.436;2022-07-04T00:15:44;22.70;60.40
11239;DHT22;5677;48.488;13.436;2022-07-04T00:18:10;22.70;60.40
11239;DHT22;5677;48.488;13.436;2022-07-04T00:20:39;22.70;60.50
11239;DHT22;5677;48.488;13.436;2022-07-04T00:23:06;22.70;60.40
11239;DHT22;5677;48.488;13.436;2022-07-04T00:25:33;22.70;60.40
11239;DHT22;5677;48.488;13.436;2022-07-04T00:27:59;22.70;60.50
11239;DHT22;5677;48.488;13.436;2022-07-04T00:30:26;22.70;61.30
11239;DHT22;5677;48.488;13.436;2022-07-04T00:32:53;22.70;60.50
11239;DHT22;5677;48.488;13.436;2022-07-04T00:35:20;22.70;60.50
11239;DHT22;5677;48.488;13.436;2022-07-04T00:37:48;22.70;60.50
11239;DHT22;5677;48.488;13.436;2022-07-04T00:40:15;22.70;60.60
11239;DHT22;5677;48.488;13.436;2022-07-04T00:42:42;22.70;60.60
11239;DHT22;5677;48.488;13.436;2022-07-04T00:45:10;22.70;60.50
11239;DHT22;5677;48.488;13.436;2022-07-04T00:47:37;22.70;60.60
11239;DHT22;5677;48.488;13.436;2022-07-04T00:50:04;22.70;60.60
11239;DHT22;5677;48.488;13.436;2022-07-04T00:52:32;22.70;60.60
11239;DHT22;5677;48.488;13.436;2022-07-04T00:55:00;22.70;60.60
11239;DHT22;5677;48.488;13.436;2022-07-04T00:57:27;22.70;60.60
11239;DHT22;5677;48.488;13.436;2022-07-04T00:59:55;22.70;60.60
11239;DHT22;5677;48.488;13.436;2022-07-04T01:02:42;22.70;60.60
11239;DHT22;5677;48.488;13.436;2022-07-04T01:05:12;22.70;60.70
11239;DHT22;5677;48.488;13.436;2022-07-04T01:07:40;22.70;60.60
11239;DHT22;5677;48.488;13.436;2022-07-04T01:10:09;22.70;60.70
11239;DHT22;5677;48.488;13.436;2022-07-04T01:12:36;22.70;60.70
11239;DHT22;5677;48.488;13.436;2022-07-04T01:15:05;22.70;60.80
11239;DHT22;5677;48.488;13.436;2022-07-04T01:17:33;22.70;60.80
11239;DHT22;5677;48.488;13.436;2022-07-04T01:20:00;22.70;60.80
11239;DHT22;5677;48.488;13.436;2022-07-04T01:22:28;22.60;60.70
11239;DHT22;5677;48.488;13.436;2022-07-04T01:24:55;22.60;60.80
11239;DHT22;5677;48.488;13.436;2022-07-04T01:27:22;22.70;60.90
11239;DHT22;5677;48.488;13.436;2022-07-04T01:29:49;22.60;60.80
11239;DHT22;5677;48.488;13.436;2022-07-04T01:32:16;22.60;60.80
11239;DHT22;5677;48.488;13.436;2022-07-04T01:34:43;22.60;60.80
11239;DHT22;5677;48.488;13.436;2022-07-04T01:37:11;22.60;60.80
11239;DHT22;5677;48.488;13.436;2022-07-04T01:39:39;22.60;60.80
11239;DHT22;5677;48.488;13.436;2022-07-04T01:42:06;22.60;60.90
11239;DHT22;5677;48.488;13.436;2022-07-04T01:44:34;22.60;60.80
11239;DHT22;5677;48.488;13.436;2022-07-04T01:47:01;22.60;60.80
11239;DHT22;5677;48.488;13.436;2022-07-04T01:49:28;22.60;60.80
11239;DHT22;5677;48.488;13.436;2022-07-04T01:51:55;22.60;60.90
11239;DHT22;5677;48.488;13.436;2022-07-04T01:54:22;22.60;60.90
11239;DHT22;5677;48.488;13.436;2022-07-04T01:56:52;22.60;60.80
11239;DHT22;5677;48.488;13.436;2022-07-04T01:59:18;22.60;60.80
11239;DHT22;5677;48.488;13.436;2022-07-04T02:02:05;22.60;60.70
11239;DHT22;5677;48.488;13.436;2022-07-04T02:04:31;22.60;60.80
11239;DHT22;5677;48.488;13.436;2022-07-04T02:07:00;22.60;60.80
11239;DHT22;5677;48.488;13.436;2022-07-04T02:09:28;22.60;60.80
11239;DHT22;5677;48.488;13.436;2022-07-04T02:11:57;22.60;60.80
11239;DHT22;5677;48.488;13.436;2022-07-04T02:14:42;22.60;60.80
11239;DHT22;5677;48.488;13.436;2022-07-04T02:17:09;22.60;60.80
11239;DHT22;5677;48.488;13.436;2022-07-04T02:19:36;22.60;60.80
11239;DHT22;5677;48.488;13.436;2022-07-04T02:22:04;22.60;60.80
11239;DHT22;5677;48.488;13.436;2022-07-04T02:24:31;22.60;60.80
11239;DHT22;5677;48.488;13.436;2022-07-04T02:26:59;22.60;60.80
11239;DHT22;5677;48.488;13.436;2022-07-04T02:29:27;22.60;60.80
11239;DHT22;5677;48.488;13.436;2022-07-04T02:31:54;22.60;60.80
11239;DHT22;5677;48.488;13.436;2022-07-04T02:34:21;22.50;60.80
11239;DHT22;5677;48.488;13.436;2022-07-04T02:36:48;22.60;60.80
11239;DHT22;5677;48.488;13.436;2022-07-04T02:39:15;22.60;60.80
11239;DHT22;5677;48.488;13.436;2022-07-04T02:41:42;22.60;60.80
11239;DHT22;5677;48.488;13.436;2022-07-04T02:44:10;22.60;60.80
11239;DHT22;5677;48.488;13.436;2022-07-04T02:46:37;22.60;60.80
11239;DHT22;5677;48.488;13.436;2022-07-04T02:49:04;22.60;60.80
11239;DHT22;5677;48.488;13.436;2022-07-04T02:51:31;22.60;60.80
11239;DHT22;5677;48.488;13.436;2022-07-04T02:53:58;22.60;60.90
11239;DHT22;5677;48.488;13.436;2022-07-04T02:56:25;22.60;60.80
11239;DHT22;5677;48.488;13.436;2022-07-04T02:58:53;22.60;60.80
11239;DHT22;5677;48.488;13.436;2022-07-04T03:01:21;22.50;60.90
11239;DHT22;5677;48.488;13.436;2022-07-04T03:03:48;22.60;60.90
11239;DHT22;5677;48.488;13.436;2022-07-04T03:06:15;22.50;60.90
11239;DHT22;5677;48.488;13.436;2022-07-04T03:08:42;22.50;60.90
11239;DHT22;5677;48.488;13.436;2022-07-04T03:11:09;22.50;60.90
11239;DHT22;5677;48.488;13.436;2022-07-04T03:13:36;22.60;60.90
11239;DHT22;5677;48.488;13.436;2022-07-04T03:16:06;22.50;60.90
11239;DHT22;5677;48.488;13.436;2022-07-04T03:18:34;22.60;60.90
11239;DHT22;5677;48.488;13.436;2022-07-04T03:21:01;22.50;60.90
11239;DHT22;5677;48.488;13.436;2022-07-04T03:23:30;22.50;61.00
11239;DHT22;5677;48.488;13.436;2022-07-04T03:25:57;22.50;61.00
11239;DHT22;5677;48.488;13.436;2022-07-04T03:28:24;22.50;61.00
11239;DHT22;5677;48.488;13.436;2022-07-04T03:30:51;22.50;61.00
11239;DHT22;5677;48.488;13.436;2022-07-04T03:33:20;22.50;61.10
11239;DHT22;5677;48.488;13.436;2022-07-04T03:35:48;22.50;61.10
11239;DHT22;5677;48.488;13.436;2022-07-04T03:38:15;22.50;61.10
11239;DHT22;5677;48.488;13.436;2022-07-04T03:40:42;22.50;61.10
11239;DHT22;5677;48.488;13.436;2022-07-04T03:43:09;22.50;61.10
11239;DHT22;5677;48.488;13.436;2022-07-04T03:45:36;22.50;61.20
11239;DHT22;5677;48.488;13.436;2022-07-04T03:48:03;22.50;62.00
11239;DHT22;5677;48.488;13.436;2022-07-04T03:50:30;22.50;61.20
11239;DHT22;5677;48.488;13.436;2022-07-04T03:52:58;22.50;61.30
11239;DHT22;5677;48.488;13.436;2022-07-04T03:55:25;22.50;61.30
11239;DHT22;5677;48.488;13.436;2022-07-04T03:57:52;22.50;61.30
11239;DHT22;5677;48.488;13.436;2022-07-04T04:00:19;22.50;61.30
11239;DHT22;5677;48.488;13.436;2022-07-04T04:02:46;22.50;61.40
11239;DHT22;5677;48.488;13.436;2022-07-04T04:05:14;22.50;61.30
11239;DHT22;5677;48.488;13.436;2022-07-04T04:07:53;22.50;61.40
11239;DHT22;5677;48.488;13.436;2022-07-04T04:10:22;22.50;61.40
11239;DHT22;5677;48.488;13.436;2022-07-04T04:12:50;22.50;61.50
11239;DHT22;5677;48.488;13.436;2022-07-04T04:15:17;22.50;61.50
11239;DHT22;5677;48.488;13.436;2022-07-04T04:17:44;22.50;61.50
11239;DHT22;5677;48.488;13.436;2022-07-04T04:20:11;22.50;61.50
11239;DHT22;5677;48.488;13.436;2022-07-04T04:22:39;22.50;61.60
11239;DHT22;5677;48.488;13.436;2022-07-04T04:25:06;22.50;61.70
11239;DHT22;5677;48.488;13.436;2022-07-04T04:27:35;22.50;61.70
11239;DHT22;5677;48.488;13.436;2022-07-04T04:30:03;22.50;61.70
11239;DHT22;5677;48.488;13.436;2022-07-04T04:32:30;22.50;61.70
11239;DHT22;5677;48.488;13.436;2022-07-04T04:34:57;22.50;61.60
11239;DHT22;5677;48.488;13.436;2022-07-04T04:37:25;22.40;61.30
11239;DHT22;5677;48.488;13.436;2022-07-04T04:39:52;22.50;61.40
11239;DHT22;5677;48.488;13.436;2022-07-04T04:42:19;22.50;61.30
11239;DHT22;5677;48.488;13.436;2022-07-04T04:44:47;22.50;61.30
11239;DHT22;5677;48.488;13.436;2022-07-04T04:47:14;22.50;61.30
11239;DHT22;5677;48.488;13.436;2022-07-04T04:49:41;22.50;61.30
11239;DHT22;5677;48.488;13.436;2022-07-04T04:52:08;22.40;61.30
11239;DHT22;5677;48.488;13.436;2022-07-04T04:54:35;22.50;62.10
11239;DHT22;5677;48.488;13.436;2022-07-04T04:57:03;22.50;61.30
11239;DHT22;5677;48.488;13.436;2022-07-04T04:59:31;22.50;61.30
11239;DHT22;5677;48.488;13.436;2022-07-04T05:01:59;22.40;61.20
11239;DHT22;5677;48.488;13.436;2022-07-04T05:04:26;22.40;61.10
11239;DHT22;5677;48.488;13.436;2022-07-04T05:06:54;22.50;61.30
11239;DHT22;5677;48.488;13.436;2022-07-04T05:09:21;22.40;61.20
11239;DHT22;5677;48.488;13.436;2022-07-04T05:11:48;22.40;61.10
11239;DHT22;5677;48.488;13.436;2022-07-04T05:14:16;22.50;61.20
11239;DHT22;5677;48.488;13.436;2022-07-04T05:16:43;22.50;61.20
11239;DHT22;5677;48.488;13.436;2022-07-04T05:19:11;22.40;61.10
11239;DHT22;5677;48.488;13.436;2022-07-04T05:21:38;22.50;61.20
11239;DHT22;5677;48.488;13.436;2022-07-04T05:24:05;22.50;61.30
11239;DHT22;5677;48.488;13.436;2022-07-04T05:26:32;22.50;61.30
11239;DHT22;5677;48.488;13.436;2022-07-04T05:28:59;22.40;61.20
11239;DHT22;5677;48.488;13.436;2022-07-04T05:31:26;22.50;61.30
11239;DHT22;5677;48.488;13.436;2022-07-04T05:33:53;22.40;61.20
11239;DHT22;5677;48.488;13.436;2022-07-04T05:36:24;22.50;61.60
11239;DHT22;5677;48.488;13.436;2022-07-04T05:38:52;22.50;63.50
11239;DHT22;5677;48.488;13.436;2022-07-04T05:41:19;22.50;64.10
11239;DHT22;5677;48.488;13.436;2022-07-04T05:43:46;22.40;63.20
11239;DHT22;5677;48.488;13.436;2022-07-04T05:46:13;22.40;62.90
11239;DHT22;5677;48.488;13.436;2022-07-04T05:48:41;22.40;62.70
11239;DHT22;5677;48.488;13.436;2022-07-04T05:51:08;22.40;62.70
11239;DHT22;5677;48.488;13.436;2022-07-04T05:53:36;22.40;62.80
11239;DHT22;5677;48.488;13.436;2022-07-04T05:56:04;22.40;63.00
11239;DHT22;5677;48.488;13.436;2022-07-04T05:58:31;22.40;63.10
11239;DHT22;5677;48.488;13.436;2022-07-04T06:00:58;22.40;63.30
11239;DHT22;5677;48.488;13.436;2022-07-04T06:03:25;22.40;63.30
11239;DHT22;5677;48.488;13.436;2022-07-04T06:05:53;22.40;63.20
11239;DHT22;5677;48.488;13.436;2022-07-04T06:08:21;22.40;63.30
11239;DHT22;5677;48.488;13.436;2022-07-04T06:10:50;22.40;64.10
11239;DHT22;5677;48.488;13.436;2022-07-04T06:13:18;22.40;63.40
11239;DHT22;5677;48.488;13.436;2022-07-04T06:15:45;22.40;63.60
11239;DHT22;5677;48.488;13.436;2022-07-04T06:18:12;22.40;63.60
11239;DHT22;5677;48.488;13.436;2022-07-04T06:20:41;22.40;64.30
11239;DHT22;5677;48.488;13.436;2022-07-04T06:23:09;22.40;65.00
11239;DHT22;5677;48.488;13.436;2022-07-04T06:25:36;22.40;64.70
11239;DHT22;5677;48.488;13.436;2022-07-04T06:28:04;22.40;64.30
11239;DHT22;5677;48.488;13.436;2022-07-04T06:30:31;22.50;64.80
11239;DHT22;5677;48.488;13.436;2022-07-04T06:32:58;22.40;65.60
11239;DHT22;5677;48.488;13.436;2022-07-04T06:35:27;22.40;66.40
11239;DHT22;5677;48.488;13.436;2022-07-04T06:38:17;22.40;66.30
11239;DHT22;5677;48.488;13.436;2022-07-04T06:40:45;22.40;65.80
11239;DHT22;5677;48.488;13.436;2022-07-04T06:43:14;22.40;65.40
11239;DHT22;5677;48.488;13.436;2022-07-04T06:45:41;22.50;65.10
11239;DHT22;5677;48.488;13.436;2022-07-04T06:48:08;22.50;64.90
11239;DHT22;5677;48.488;13.436;2022-07-04T06:50:36;22.50;64.90
11239;DHT22;5677;48.488;13.436;2022-07-04T06:53:05;22.50;64.70
11239;DHT22;5677;48.488;13.436;2022-07-04T06:55:33;22.50;64.60
11239;DHT22;5677;48.488;13.436;2022-07-04T06:58:00;22.50;64.60
11239;DHT22;5677;48.488;13.436;2022-07-04T07:00:29;22.50;65.40
11239;DHT22;5677;48.488;13.436;2022-07-04T07:02:56;22.60;64.60
11239;DHT22;5677;48.488;13.436;2022-07-04T07:05:24;22.60;64.50
11239;DHT22;5677;48.488;13.436;2022-07-04T07:07:51;22.60;64.40
11239;DHT22;5677;48.488;13.436;2022-07-04T07:10:19;22.60;64.40
11239;DHT22;5677;48.488;13.436;2022-07-04T07:12:46;22.60;64.30
11239;DHT22;5677;48.488;13.436;2022-07-04T07:15:13;22.60;64.20
11239;DHT22;5677;48.488;13.436;2022-07-04T07:17:43;22.60;64.20
11239;DHT22;5677;48.488;13.436;2022-07-04T07:20:10;22.60;64.30
11239;DHT22;5677;48.488;13.436;2022-07-04T07:22:39;22.60;64.10
11239;DHT22;5677;48.488;13.436;2022-07-04T07:25:07;22.60;64.10
11239;DHT22;5677;48.488;13.436;2022-07-04T07:27:35;22.60;64.00
11239;DHT22;5677;48.488;13.436;2022-07-04T07:30:02;22.60;63.80
11239;DHT22;5677;48.488;13.436;2022-07-04T07:32:30;22.60;63.60
11239;DHT22;5677;48.488;13.436;2022-07-04T07:34:58;22.60;64.00
11239;DHT22;5677;48.488;13.436;2022-07-04T07:37:25;22.50;64.70
11239;DHT22;5677;48.488;13.436;2022-07-04T07:39:52;22.60;65.30
11239;DHT22;5677;48.488;13.436;2022-07-04T07:42:19;22.60;65.40
11239;DHT22;5677;48.488;13.436;2022-07-04T07:44:46;22.60;65.80
11239;DHT22;5677;48.488;13.436;2022-07-04T07:47:13;22.60;65.90
11239;DHT22;5677;48.488;13.436;2022-07-04T07:49:40;22.60;65.80
11239;DHT22;5677;48.488;13.436;2022-07-04T07:52:09;22.60;65.90
11239;DHT22;5677;48.488;13.436;2022-07-04T07:54:36;22.60;66.30
11239;DHT22;5677;48.488;13.436;2022-07-04T07:57:03;22.60;64.80
11239;DHT22;5677;48.488;13.436;2022-07-04T07:59:31;22.60;64.80
11239;DHT22;5677;48.488;13.436;2022-07-04T08:01:58;22.60;65.20
11239;DHT22;5677;48.488;13.436;2022-07-04T08:04:25;22.60;65.20
11239;DHT22;5677;48.488;13.436;2022-07-04T08:07:00;22.60;65.20
11239;DHT22;5677;48.488;13.436;2022-07-04T08:09:28;22.70;65.30
11239;DHT22;5677;48.488;13.436;2022-07-04T08:11:55;22.70;65.20
11239;DHT22;5677;48.488;13.436;2022-07-04T08:14:22;22.70;65.20
11239;DHT22;5677;48.488;13.436;2022-07-04T08:16:49;22.70;65.10
11239;DHT22;5677;48.488;13.436;2022-07-04T08:19:16;22.70;65.00
11239;DHT22;5677;48.488;13.436;2022-07-04T08:21:43;22.70;65.00
11239;DHT22;5677;48.488;13.436;2022-07-04T08:24:12;22.70;64.90
11239;DHT22;5677;48.488;13.436;2022-07-04T08:26:40;22.70;64.90
11239;DHT22;5677;48.488;13.436;2022-07-04T08:29:08;22.70;65.10
11239;DHT22;5677;48.488;13.436;2022-07-04T08:31:35;22.70;65.10
11239;DHT22;5677;48.488;13.436;2022-07-04T08:34:01;22.70;64.90
11239;DHT22;5677;48.488;13.436;2022-07-04T08:36:28;22.70;64.80
11239;DHT22;5677;48.488;13.436;2022-07-04T08:38:55;22.70;64.90
11239;DHT22;5677;48.488;13.436;2022-07-04T08:41:22;22.70;65.20
11239;DHT22;5677;48.488;13.436;2022-07-04T08:43:52;22.70;65.20
11239;DHT22;5677;48.488;13.436;2022-07-04T08:46:24;22.70;65.60
11239;DHT22;5677;48.488;13.436;2022-07-04T08:48:52;22.70;65.80
11239;DHT22;5677;48.488;13.436;2022-07-04T08:51:29;22.70;65.70
11239;DHT22;5677;48.488;13.436;2022-07-04T08:54:08;22.70;65.20
11239;DHT22;5677;48.488;13.436;2022-07-04T08:56:50;22.70;65.60
11239;DHT22;5677;48.488;13.436;2022-07-04T08:59:36;22.70;66.20
11239;DHT22;5677;48.488;13.436;2022-07-04T09:02:04;22.70;66.50
11239;DHT22;5677;48.488;13.436;2022-07-04T09:04:31;22.80;66.40
11239;DHT22;5677;48.488;13.436;2022-07-04T09:06:59;22.80;66.50
11239;DHT22;5677;48.488;13.436;2022-07-04T09:09:27;22.80;67.10
11239;DHT22;5677;48.488;13.436;2022-07-04T09:11:55;22.80;67.10
11239;DHT22;5677;48.488;13.436;2022-07-04T09:14:22;22.80;66.70
11239;DHT22;5677;48.488;13.436;2022-07-04T09:16:50;22.80;68.30
11239;DHT22;5677;48.488;13.436;2022-07-04T09:19:19;22.90;68.40
11239;DHT22;5677;48.488;13.436;2022-07-04T09:21:49;23.00;68.30
11239;DHT22;5677;48.488;13.436;2022-07-04T09:24:16;22.90;68.10
11239;DHT22;5677;48.488;13.436;2022-07-04T09:27:03;23.00;67.90
11239;DHT22;5677;48.488;13.436;2022-07-04T09:29:30;23.00;67.60
11239;DHT22;5677;48.488;13.436;2022-07-04T09:31:59;23.00;67.40
11239;DHT22;5677;48.488;13.436;2022-07-04T09:34:26;23.10;67.50
11239;DHT22;5677;48.488;13.436;2022-07-04T09:36:53;23.10;67.70
11239;DHT22;5677;48.488;13.436;2022-07-04T09:39:21;23.10;67.50
11239;DHT22;5677;48.488;13.436;2022-07-04T09:41:53;23.10;67.30
11239;DHT22;5677;48.488;13.436;2022-07-04T09:44:22;23.10;67.00
11239;DHT22;5677;48.488;13.436;2022-07-04T09:46:50;23.10;66.70
11239;DHT22;5677;48.488;13.436;2022-07-04T09:49:19;23.10;66.60
11239;DHT22;5677;48.488;13.436;2022-07-04T09:51:48;23.20;66.40
11239;DHT22;5677;48.488;13.436;2022-07-04T09:54:19;23.10;66.00
11239;DHT22;5677;48.488;13.436;2022-07-04T09:56:54;23.20;66.00
11239;DHT22;5677;48.488;13.436;2022-07-04T09:59:23;23.20;66.20
11239;DHT22;5677;48.488;13.436;2022-07-04T10:01:50;23.20;66.30
11239;DHT22;5677;48.488;13.436;2022-07-04T10:04:19;23.20;66.40
11239;DHT22;5677;48.488;13.436;2022-07-04T10:06:48;23.20;66.20
11239;DHT22;5677;48.488;13.436;2022-07-04T10:09:17;23.20;65.90
11239;DHT22;5677;48.488;13.436;2022-07-04T10:11:46;23.20;65.80
11239;DHT22;5677;48.488;13.436;2022-07-04T10:14:14;23.10;65.60
11239;DHT22;5677;48.488;13.436;2022-07-04T10:16:41;23.10;65.50
11239;DHT22;5677;48.488;13.436;2022-07-04T10:19:09;23.10;65.40
11239;DHT22;5677;48.488;13.436;2022-07-04T10:21:39;23.10;65.30
11239;DHT22;5677;48.488;13.436;2022-07-04T10:24:07;23.10;65.20
11239;DHT22;5677;48.488;13.436;2022-07-04T10:26:34;23.10;65.10
11239;DHT22;5677;48.488;13.436;2022-07-04T10:29:02;23.10;65.10
11239;DHT22;5677;48.488;13.436;2022-07-04T10:31:30;23.10;65.10
11239;DHT22;5677;48.488;13.436;2022-07-04T10:33:58;23.10;65.00
11239;DHT22;5677;48.488;13.436;2022-07-04T10:36:27;23.10;64.90
11239;DHT22;5677;48.488;13.436;2022-07-04T10:38:58;23.10;64.90
11239;DHT22;5677;48.488;13.436;2022-07-04T10:41:28;23.10;64.80
11239;DHT22;5677;48.488;13.436;2022-07-04T10:43:58;23.10;64.80
11239;DHT22;5677;48.488;13.436;2022-07-04T10:46:30;23.10;64.80
11239;DHT22;5677;48.488;13.436;2022-07-04T10:49:06;23.10;64.80
11239;DHT22;5677;48.488;13.436;2022-07-04T10:51:44;23.10;64.70
11239;DHT22;5677;48.488;13.436;2022-07-04T10:54:15;23.10;64.70
11239;DHT22;5677;48.488;13.436;2022-07-04T10:56:45;23.00;64.50
11239;DHT22;5677;48.488;13.436;2022-07-04T10:59:24;23.10;64.60
11239;DHT22;5677;48.488;13.436;2022-07-04T11:02:00;23.00;64.40
11239;DHT22;5677;48.488;13.436;2022-07-04T11:04:52;23.10;64.50
11239;DHT22;5677;48.488;13.436;2022-07-04T11:07:23;23.10;64.50
11239;DHT22;5677;48.488;13.436;2022-07-04T11:10:21;23.00;64.30
11239;DHT22;5677;48.488;13.436;2022-07-04T11:13:15;23.00;64.30
11239;DHT22;5677;48.488;13.436;2022-07-04T11:16:03;23.00;64.40
11239;DHT22;5677;48.488;13.436;2022-07-04T11:18:41;23.00;64.30
11239;DHT22;5677;48.488;13.436;2022-07-04T11:21:21;23.00;64.30
11239;DHT22;5677;48.488;13.436;2022-07-04T11:23:54;23.00;64.20
11239;DHT22;5677;48.488;13.436;2022-07-04T11:26:24;23.00;64.10
11239;DHT22;5677;48.488;13.436;2022-07-04T11:28:51;23.00;64.20
11239;DHT22;5677;48.488;13.436;2022-07-04T11:31:18;23.00;64.10
11239;DHT22;5677;48.488;13.436;2022-07-04T11:33:46;23.00;64.20
11239;DHT22;5677;48.488;13.436;2022-07-04T11:36:16;23.00;64.10
11239;DHT22;5677;48.488;13.436;2022-07-04T11:38:51;23.00;64.10
11239;DHT22;5677;48.488;13.436;2022-07-04T11:41:23;23.00;64.10
11239;DHT22;5677;48.488;13.436;2022-07-04T11:44:11;23.00;64.10
11239;DHT22;5677;48.488;13.436;2022-07-04T11:47:08;23.00;64.00
11239;DHT22;5677;48.488;13.436;2022-07-04T11:49:45;23.00;64.10
11239;DHT22;5677;48.488;13.436;2022-07-04T11:52:15;23.00;64.80
11239;DHT22;5677;48.488;13.436;2022-07-04T11:54:45;23.00;63.90
11239;DHT22;5677;48.488;13.436;2022-07-04T11:57:18;23.00;63.90
11239;DHT22;5677;48.488;13.436;2022-07-04T11:59:58;23.00;64.00
11239;DHT22;5677;48.488;13.436;2022-07-04T12:02:29;23.00;64.00
11239;DHT22;5677;48.488;13.436;2022-07-04T12:04:58;23.00;63.90
11239;DHT22;5677;48.488;13.436;2022-07-04T12:07:28;22.90;63.90
11239;DHT22;5677;48.488;13.436;2022-07-04T12:10:07;23.00;63.90
11239;DHT22;5677;48.488;13.436;2022-07-04T12:12:50;23.00;63.90
11239;DHT22;5677;48.488;13.436;2022-07-04T12:15:18;22.90;63.90
11239;DHT22;5677;48.488;13.436;2022-07-04T12:17:49;23.00;63.90
11239;DHT22;5677;48.488;13.436;2022-07-04T12:20:18;23.00;63.80
11239;DHT22;5677;48.488;13.436;2022-07-04T12:22:50;23.00;63.70
11239;DHT22;5677;48.488;13.436;2022-07-04T12:25:23;23.00;63.70
11239;DHT22;5677;48.488;13.436;2022-07-04T12:27:55;22.90;63.70
11239;DHT22;5677;48.488;13.436;2022-07-04T12:30:24;23.00;63.70
11239;DHT22;5677;48.488;13.436;2022-07-04T12:32:56;23.00;63.70
11239;DHT22;5677;48.488;13.436;2022-07-04T12:35:42;23.00;63.70
11239;DHT22;5677;48.488;13.436;2022-07-04T12:38:14;23.00;63.70
11239;DHT22;5677;48.488;13.436;2022-07-04T12:40:56;23.00;63.60
11239;DHT22;5677;48.488;13.436;2022-07-04T12:43:43;23.00;63.60
11239;DHT22;5677;48.488;13.436;2022-07-04T12:46:13;23.00;63.50
11239;DHT22;5677;48.488;13.436;2022-07-04T12:48:42;23.00;63.50
11239;DHT22;5677;48.488;13.436;2022-07-04T12:51:11;23.00;63.40
11239;DHT22;5677;48.488;13.436;2022-07-04T12:53:40;23.00;63.40
11239;DHT22;5677;48.488;13.436;2022-07-04T12:56:08;23.00;63.40
11239;DHT22;5677;48.488;13.436;2022-07-04T12:58:37;23.00;64.10
11239;DHT22;5677;48.488;13.436;2022-07-04T13:01:04;23.00;63.30
11239;DHT22;5677;48.488;13.436;2022-07-04T13:03:31;23.00;63.30
11239;DHT22;5677;48.488;13.436;2022-07-04T13:05:58;23.00;63.20
11239;DHT22;5677;48.488;13.436;2022-07-04T13:08:25;23.00;63.20
11239;DHT22;5677;48.488;13.436;2022-07-04T13:10:52;23.00;63.20
11239;DHT22;5677;48.488;13.436;2022-07-04T13:13:40;23.00;63.20
11239;DHT22;5677;48.488;13.436;2022-07-04T13:16:07;23.10;63.20
11239;DHT22;5677;48.488;13.436;2022-07-04T13:18:34;23.10;63.10
11239;DHT22;5677;48.488;13.436;2022-07-04T13:21:01;23.10;63.20
11239;DHT22;5677;48.488;13.436;2022-07-04T13:23:28;23.10;63.20
11239;DHT22;5677;48.488;13.436;2022-07-04T13:25:55;23.10;63.10
11239;DHT22;5677;48.488;13.436;2022-07-04T13:28:22;23.10;63.10
11239;DHT22;5677;48.488;13.436;2022-07-04T13:30:50;23.10;63.00
11239;DHT22;5677;48.488;13.436;2022-07-04T13:33:17;23.10;63.00
11239;DHT22;5677;48.488;13.436;2022-07-04T13:35:44;23.10;62.90
11239;DHT22;5677;48.488;13.436;2022-07-04T13:38:11;23.10;62.90
11239;DHT22;5677;48.488;13.436;2022-07-04T13:40:41;23.10;62.90
11239;DHT22;5677;48.488;13.436;2022-07-04T13:43:09;23.10;62.80
11239;DHT22;5677;48.488;13.436;2022-07-04T13:45:36;23.20;62.80
11239;DHT22;5677;48.488;13.436;2022-07-04T13:48:07;23.10;62.80
11239;DHT22;5677;48.488;13.436;2022-07-04T13:50:34;23.20;62.80
11239;DHT22;5677;48.488;13.436;2022-07-04T13:53:03;23.20;62.80
11239;DHT22;5677;48.488;13.436;2022-07-04T13:55:30;23.20;62.80
11239;DHT22;5677;48.488;13.436;2022-07-04T13:57:57;23.20;62.70
11239;DHT22;5677;48.488;13.436;2022-07-04T14:00:24;23.20;62.70
11239;DHT22;5677;48.488;13.436;2022-07-04T14:02:51;23.20;62.70
11239;DHT22;5677;48.488;13.436;2022-07-04T14:05:19;23.20;62.60
11239;DHT22;5677;48.488;13.436;2022-07-04T14:07:46;23.20;62.70
11239;DHT22;5677;48.488;13.436;2022-07-04T14:10:13;23.20;62.70
11239;DHT22;5677;48.488;13.436;2022-07-04T14:12:40;23.20;62.70
11239;DHT22;5677;48.488;13.436;2022-07-04T14:15:09;23.20;62.70
11239;DHT22;5677;48.488;13.436;2022-07-04T14:17:36;23.20;62.60
11239;DHT22;5677;48.488;13.436;2022-07-04T14:20:04;23.20;62.70
11239;DHT22;5677;48.488;13.436;2022-07-04T14:22:35;23.20;62.60
11239;DHT22;5677;48.488;13.436;2022-07-04T14:25:02;23.20;62.60
11239;DHT22;5677;48.488;13.436;2022-07-04T14:27:29;23.20;62.60
11239;DHT22;5677;48.488;13.436;2022-07-04T14:29:56;23.20;62.60
11239;DHT22;5677;48.488;13.436;2022-07-04T14:32:23;23.20;62.60
11239;DHT22;5677;48.488;13.436;2022-07-04T14:34:50;23.20;62.50
11239;DHT22;5677;48.488;13.436;2022-07-04T14:37:17;23.10;62.50
11239;DHT22;5677;48.488;13.436;2022-07-04T14:39:46;23.20;62.50
11239;DHT22;5677;48.488;13.436;2022-07-04T14:42:13;23.20;62.50
11239;DHT22;5677;48.488;13.436;2022-07-04T14:44:40;23.20;62.40
11239;DHT22;5677;48.488;13.436;2022-07-04T14:47:07;23.20;62.40
11239;DHT22;5677;48.488;13.436;2022-07-04T14:49:34;23.20;62.40
11239;DHT22;5677;48.488;13.436;2022-07-04T14:52:01;23.20;62.40
11239;DHT22;5677;48.488;13.436;2022-07-04T14:54:28;23.20;62.30
11239;DHT22;5677;48.488;13.436;2022-07-04T14:56:57;23.20;62.30
11239;DHT22;5677;48.488;13.436;2022-07-04T14:59:24;23.20;62.40
11239;DHT22;5677;48.488;13.436;2022-07-04T15:01:51;23.20;62.30
11239;DHT22;5677;48.488;13.436;2022-07-04T15:04:18;23.20;62.30
11239;DHT22;5677;48.488;13.436;2022-07-04T15:06:45;23.20;62.40
11239;DHT22;5677;48.488;13.436;2022-07-04T15:09:13;23.20;62.40
11239;DHT22;5677;48.488;13.436;2022-07-04T15:11:40;23.20;62.30
11239;DHT22;5677;48.488;13.436;2022-07-04T15:14:08;23.20;62.40
11239;DHT22;5677;48.488;13.436;2022-07-04T15:16:35;23.20;62.30
11239;DHT22;5677;48.488;13.436;2022-07-04T15:19:02;23.20;62.30
11239;DHT22;5677;48.488;13.436;2022-07-04T15:21:29;23.20;62.30
11239;DHT22;5677;48.488;13.436;2022-07-04T15:24:14;23.20;62.30
11239;DHT22;5677;48.488;13.436;2022-07-04T15:26:42;23.20;62.30
11239;DHT22;5677;48.488;13.436;2022-07-04T15:29:12;23.20;62.30
11239;DHT22;5677;48.488;13.436;2022-07-04T15:31:40;23.20;62.40
11239;DHT22;5677;48.488;13.436;2022-07-04T15:34:08;23.20;62.40
11239;DHT22;5677;48.488;13.436;2022-07-04T15:36:35;23.20;62.30
11239;DHT22;5677;48.488;13.436;2022-07-04T15:39:05;23.20;62.40
11239;DHT22;5677;48.488;13.436;2022-07-04T15:41:33;23.20;62.30